Terminal Aerodrome Forecast
Issued by NWS Cleveland, OH

Home | Current Version | Previous Version | Graphics & Text | Print | Product List | Glossary Off
Versions: 1 2 3 4 5 6 7 8 9 10 11 12 13 14 15 16 17 18 19 20 21 22 23 24 25 26

413
FTUS41 KCLE 282332
TAFMFD
TAF
KMFD 282332Z 2900/2924 24011KT P6SM VCTS SCT025CB BKN040
      TEMPO 2900/2904 VRB20G35KT 2SM TSRA OVC015CB
     FM290400 24011KT P6SM VCSH BKN025 OVC040
     FM290800 26008KT P6SM SCT025 BKN040
     FM291400 25011KT P6SM SCT150=

USA.gov is the U.S. government's official web portal to all federal, state and local government web resources and services.